createdAt,value
2018-12-16T00:02:22.134Z,26.30
2018-12-16T00:04:50.624Z,24.80
2018-12-16T00:07:19.156Z,26.20
2018-12-16T00:09:47.699Z,26.80
2018-12-16T00:12:16.237Z,22.57
2018-12-16T00:14:44.744Z,23.93
2018-12-16T00:17:13.409Z,22.50
2018-12-16T00:19:41.911Z,24.70
2018-12-16T00:22:10.429Z,40.88
2018-12-16T00:24:38.945Z,30.37
2018-12-16T00:27:10.335Z,22.85
2018-12-16T00:29:39.195Z,23.23
2018-12-16T00:32:07.783Z,26.62
2018-12-16T00:34:36.265Z,22.47
2018-12-16T00:37:04.944Z,27.80
2018-12-16T00:39:33.450Z,24.57
2018-12-16T00:42:02.723Z,26.07
2018-12-16T00:44:31.235Z,28.95
2018-12-16T00:46:59.788Z,25.50
2018-12-16T00:49:28.382Z,26.15
2018-12-16T00:51:56.914Z,26.20
2018-12-16T00:54:25.456Z,26.85
2018-12-16T00:56:53.985Z,24.35
2018-12-16T00:59:22.612Z,28.65
2018-12-16T01:01:51.153Z,25.05
2018-12-16T01:04:19.799Z,23.12
2018-12-16T01:06:48.405Z,32.53
2018-12-16T01:09:16.937Z,28.77
2018-12-16T01:11:45.551Z,28.87
2018-12-16T01:14:14.087Z,33.70
2018-12-16T01:16:42.591Z,33.42
2018-12-16T01:19:11.247Z,30.97
2018-12-16T01:21:39.755Z,33.13
2018-12-16T01:24:08.367Z,33.42
2018-12-16T01:26:36.885Z,30.77
2018-12-16T01:29:05.456Z,32.37
2018-12-16T01:31:33.977Z,27.82
2018-12-16T01:34:02.520Z,34.95
2018-12-16T01:36:31.030Z,32.73
2018-12-16T01:38:59.610Z,35.15
2018-12-16T01:41:28.203Z,33.95
2018-12-16T01:43:56.726Z,32.30
2018-12-16T01:46:25.297Z,31.60
2018-12-16T01:48:53.818Z,31.73
2018-12-16T01:51:22.348Z,28.70
2018-12-16T01:53:50.868Z,28.60
2018-12-16T01:56:19.368Z,27.05
2018-12-16T01:58:47.907Z,30.35
2018-12-16T02:01:16.409Z,28.87
2018-12-16T02:03:44.956Z,31.48
2018-12-16T02:06:14.118Z,34.63
2018-12-16T02:08:42.632Z,28.07
2018-12-16T02:11:11.145Z,29.98
2018-12-16T02:13:40.591Z,26.10
2018-12-16T02:16:09.115Z,26.50
2018-12-16T02:18:38.872Z,24.55
2018-12-16T02:21:07.416Z,28.38
2018-12-16T02:23:36.014Z,28.90
2018-12-16T02:26:04.557Z,31.25
2018-12-16T02:28:33.099Z,29.45
2018-12-16T02:31:01.601Z,26.07
2018-12-16T02:33:30.144Z,26.30
2018-12-16T02:35:58.692Z,29.57
2018-12-16T02:38:27.213Z,28.60
2018-12-16T02:40:55.741Z,28.83
2018-12-16T02:43:24.284Z,28.83
2018-12-16T02:45:52.928Z,27.65
2018-12-16T02:48:21.492Z,30.35
2018-12-16T02:50:49.972Z,27.05
2018-12-16T02:53:18.502Z,32.05
2018-12-16T02:55:47.023Z,30.15
2018-12-16T02:58:15.568Z,28.10
2018-12-16T03:00:44.292Z,32.58
2018-12-16T03:03:12.793Z,34.30
2018-12-16T03:05:41.331Z,31.93
2018-12-16T03:08:09.847Z,28.85
2018-12-16T03:10:38.334Z,29.40
2018-12-16T03:13:06.905Z,28.95
2018-12-16T03:15:35.392Z,28.95
2018-12-16T03:18:03.941Z,29.57
2018-12-16T03:20:32.433Z,21.05
2018-12-16T03:23:00.997Z,28.32
2018-12-16T03:25:29.493Z,23.45
2018-12-16T03:27:58.003Z,27.40
2018-12-16T03:30:26.510Z,25.45
2018-12-16T03:32:55.016Z,26.42
2018-12-16T03:35:23.760Z,22.60
2018-12-16T03:37:52.250Z,21.75
2018-12-16T03:40:20.765Z,24.95
2018-12-16T03:42:49.289Z,22.42
2018-12-16T03:45:17.824Z,27.22
2018-12-16T03:47:46.332Z,26.45
2018-12-16T03:50:15.128Z,29.60
2018-12-16T03:52:43.703Z,24.50
2018-12-16T03:55:12.249Z,22.45
2018-12-16T03:57:40.768Z,24.70
2018-12-16T04:00:09.461Z,21.05
2018-12-16T04:03:02.346Z,23.10
2018-12-16T04:05:59.664Z,22.90
2018-12-16T04:08:29.519Z,23.40
2018-12-16T04:10:58.002Z,24.05
2018-12-16T04:13:26.523Z,23.20
2018-12-16T04:15:55.003Z,21.90
2018-12-16T04:18:23.500Z,23.35
2018-12-16T04:20:51.980Z,24.40
2018-12-16T04:23:27.294Z,21.07
2018-12-16T04:25:51.001Z,22.82
2018-12-16T04:28:19.682Z,27.02
2018-12-16T04:30:48.385Z,24.40
2018-12-16T04:33:16.885Z,24.87
2018-12-16T04:35:45.384Z,25.05
2018-12-16T04:38:13.887Z,23.87
2018-12-16T04:40:42.404Z,23.20
2018-12-16T04:43:10.889Z,24.32
2018-12-16T04:45:39.413Z,25.10
2018-12-16T04:48:07.890Z,22.48
2018-12-16T04:50:36.401Z,27.48
2018-12-16T04:53:04.898Z,25.55
2018-12-16T04:55:33.441Z,27.13
2018-12-16T04:58:01.942Z,23.62
2018-12-16T05:00:30.469Z,25.35
2018-12-16T05:02:58.965Z,25.82
2018-12-16T05:05:27.471Z,19.30
2018-12-16T05:07:56.293Z,22.22
2018-12-16T05:10:28.477Z,18.82
2018-12-16T05:12:57.051Z,22.05
2018-12-16T05:15:25.596Z,23.52
2018-12-16T05:17:54.127Z,21.48
2018-12-16T05:20:22.650Z,19.98
2018-12-16T05:22:51.134Z,19.02
2018-12-16T05:25:19.667Z,19.23
2018-12-16T05:27:48.159Z,17.30
2018-12-16T05:30:17.446Z,20.17
2018-12-16T05:32:46.548Z,19.57
2018-12-16T05:35:15.048Z,17.15
2018-12-16T05:37:43.532Z,19.70
2018-12-16T05:40:12.092Z,19.48
2018-12-16T05:42:40.582Z,20.65
2018-12-16T05:45:09.233Z,18.07
2018-12-16T05:47:37.714Z,19.15
2018-12-16T05:50:06.887Z,18.05
2018-12-16T05:52:35.372Z,16.52
2018-12-16T05:55:03.947Z,15.18
2018-12-16T05:57:32.436Z,21.35
2018-12-16T06:00:00.959Z,15.80
2018-12-16T06:02:29.464Z,13.70
2018-12-16T06:04:57.965Z,16.55
2018-12-16T06:07:26.433Z,15.65
2018-12-16T06:09:54.928Z,11.65
2018-12-16T06:12:23.467Z,12.88
2018-12-16T06:14:52.019Z,10.30
2018-12-16T06:17:20.611Z,12.55
2018-12-16T06:19:49.145Z,15.03
2018-12-16T06:22:17.641Z,11.40
2018-12-16T06:24:46.139Z,14.75
2018-12-16T06:27:14.648Z,10.23
2018-12-16T06:29:43.637Z,10.00
2018-12-16T06:32:12.157Z,12.35
2018-12-16T06:34:40.654Z,11.50
2018-12-16T06:37:09.132Z,11.70
2018-12-16T06:39:37.646Z,12.15
2018-12-16T06:42:06.224Z,11.03
2018-12-16T06:44:34.731Z,10.93
2018-12-16T06:47:03.292Z,12.88
2018-12-16T06:49:32.080Z,9.25
2018-12-16T06:52:00.632Z,13.45
2018-12-16T06:54:29.523Z,13.53
2018-12-16T06:56:59.571Z,11.60
2018-12-16T06:59:28.108Z,11.48
2018-12-16T07:01:56.604Z,11.78
2018-12-16T07:04:25.104Z,10.32
2018-12-16T07:06:53.642Z,11.93
2018-12-16T07:09:22.143Z,11.83
2018-12-16T07:11:50.670Z,12.18
2018-12-16T07:14:19.197Z,13.95
2018-12-16T07:16:47.686Z,14.83
2018-12-16T07:19:16.170Z,11.33
2018-12-16T07:21:44.689Z,11.70
2018-12-16T07:24:13.178Z,12.50
2018-12-16T07:26:41.691Z,14.13
2018-12-16T07:29:10.186Z,14.25
2018-12-16T07:31:38.687Z,15.68
2018-12-16T07:34:07.187Z,11.73
2018-12-16T07:36:35.704Z,11.60
2018-12-16T07:39:05.828Z,13.88
2018-12-16T07:41:34.424Z,14.07
2018-12-16T07:44:03.013Z,14.23
2018-12-16T07:46:31.649Z,10.28
2018-12-16T07:49:00.321Z,12.78
2018-12-16T07:51:28.859Z,10.93
2018-12-16T07:53:57.467Z,17.67
2018-12-16T07:56:25.991Z,14.10
2018-12-16T07:58:54.493Z,14.80
2018-12-16T08:01:23.068Z,12.95
2018-12-16T08:03:51.552Z,19.87
2018-12-16T08:06:20.398Z,13.58
2018-12-16T08:08:48.957Z,14.23
2018-12-16T08:11:18.198Z,11.53
2018-12-16T08:13:46.763Z,18.90
2018-12-16T08:16:15.328Z,12.13
2018-12-16T08:18:43.915Z,11.55
2018-12-16T08:21:12.491Z,11.88
2018-12-16T08:23:40.987Z,11.75
2018-12-16T08:26:09.658Z,12.78
2018-12-16T08:28:38.176Z,11.93
2018-12-16T08:31:06.687Z,18.30
2018-12-16T08:33:35.195Z,15.78
2018-12-16T08:36:04.146Z,14.40
2018-12-16T08:38:33.255Z,14.87
2018-12-16T08:41:02.330Z,15.85
2018-12-16T08:43:31.372Z,12.35
2018-12-16T08:46:00.534Z,15.50
2018-12-16T08:48:29.495Z,13.45
2018-12-16T08:50:58.007Z,12.63
2018-12-16T08:53:26.832Z,13.10
2018-12-16T08:55:55.679Z,12.25
2018-12-16T08:58:24.606Z,12.05
2018-12-16T09:00:53.119Z,14.65
2018-12-16T09:03:22.623Z,15.58
2018-12-16T09:05:51.130Z,13.43
2018-12-16T09:08:19.670Z,13.32
2018-12-16T09:10:48.164Z,15.72
2018-12-16T09:13:16.664Z,24.23
2018-12-16T09:15:45.315Z,16.73
2018-12-16T09:18:13.847Z,14.10
2018-12-16T09:20:42.372Z,19.40
2018-12-16T09:23:10.900Z,13.48
2018-12-16T09:25:39.415Z,14.80
2018-12-16T09:28:07.960Z,10.30
2018-12-16T09:30:36.451Z,15.65
2018-12-16T09:33:05.058Z,11.95
2018-12-16T09:35:33.601Z,11.97
2018-12-16T09:38:02.116Z,13.10
2018-12-16T09:40:30.608Z,16.07
2018-12-16T09:42:59.148Z,13.10
2018-12-16T09:45:27.655Z,18.20
2018-12-16T09:47:56.300Z,13.88
2018-12-16T09:50:24.810Z,14.07
2018-12-16T09:52:53.330Z,13.85
2018-12-16T09:55:21.820Z,12.65
2018-12-16T09:57:50.461Z,12.15
2018-12-16T10:00:19.053Z,10.70
2018-12-16T10:02:47.712Z,12.30
2018-12-16T10:05:16.195Z,20.45
2018-12-16T10:07:44.728Z,16.12
2018-12-16T10:10:13.352Z,13.53
2018-12-16T10:12:41.881Z,12.30
2018-12-16T10:15:10.405Z,12.40
2018-12-16T10:17:38.929Z,15.65
2018-12-16T10:20:09.101Z,15.18
2018-12-16T10:22:37.609Z,15.15
2018-12-16T10:25:06.241Z,13.85
2018-12-16T10:27:34.735Z,15.70
2018-12-16T10:30:03.226Z,14.85
2018-12-16T10:32:32.539Z,13.70
2018-12-16T10:35:01.258Z,14.05
2018-12-16T10:37:29.905Z,17.30
2018-12-16T10:39:58.372Z,15.85
2018-12-16T10:42:26.863Z,15.63
2018-12-16T10:44:55.379Z,14.18
2018-12-16T10:47:23.940Z,14.65
2018-12-16T10:49:52.454Z,14.35
2018-12-16T10:52:20.966Z,13.68
2018-12-16T10:54:49.479Z,15.70
2018-12-16T10:57:17.978Z,11.93
2018-12-16T10:59:47.592Z,14.55
2018-12-16T11:02:16.141Z,12.47
2018-12-16T11:04:44.643Z,17.40
2018-12-16T11:07:13.148Z,13.55
2018-12-16T11:09:41.748Z,14.05
2018-12-16T11:12:11.219Z,18.40
2018-12-16T11:14:39.760Z,11.33
2018-12-16T11:17:08.253Z,13.32
2018-12-16T11:19:36.725Z,14.58
2018-12-16T11:22:05.241Z,14.53
2018-12-16T11:24:33.818Z,11.75
2018-12-16T11:27:02.418Z,12.50
2018-12-16T11:29:31.339Z,16.07
2018-12-16T11:31:59.831Z,16.20
2018-12-16T11:34:28.439Z,16.60
2018-12-16T11:36:56.970Z,18.62
2018-12-16T11:39:25.487Z,16.52
2018-12-16T11:41:54.009Z,16.80
2018-12-16T11:44:22.495Z,19.10
2018-12-16T11:46:51.069Z,12.43
2018-12-16T11:49:19.567Z,18.32
2018-12-16T11:51:48.320Z,17.00
2018-12-16T11:54:16.817Z,18.80
2018-12-16T11:56:45.391Z,19.12
2018-12-16T11:59:13.916Z,17.65
2018-12-16T12:01:42.425Z,17.42
2018-12-16T12:04:10.927Z,15.90
2018-12-16T12:06:39.421Z,16.05
2018-12-16T12:09:07.924Z,13.83
2018-12-16T12:11:36.441Z,16.77
2018-12-16T12:14:04.974Z,16.57
2018-12-16T12:16:33.560Z,15.80
2018-12-16T12:19:02.268Z,19.02
2018-12-16T12:21:30.889Z,18.12
2018-12-16T12:23:59.514Z,17.00
2018-12-16T12:26:28.007Z,16.37
2018-12-16T12:28:56.572Z,17.75
2018-12-16T12:31:26.697Z,16.45
2018-12-16T12:33:55.427Z,17.70
2018-12-16T12:36:23.921Z,19.02
2018-12-16T12:38:52.424Z,15.00
2018-12-16T12:41:20.910Z,16.05
2018-12-16T12:43:49.426Z,23.12
2018-12-16T12:46:17.986Z,19.23
2018-12-16T12:48:46.487Z,18.02
2018-12-16T12:51:15.164Z,19.82
2018-12-16T12:53:43.669Z,17.23
2018-12-16T12:56:12.133Z,19.02
2018-12-16T12:58:40.641Z,22.20
2018-12-16T13:01:09.129Z,22.02
2018-12-16T13:03:37.625Z,23.20
2018-12-16T13:06:06.140Z,31.07
2018-12-16T13:08:34.630Z,27.37
2018-12-16T13:11:03.096Z,26.55
2018-12-16T13:13:31.621Z,27.50
2018-12-16T13:16:00.135Z,23.42
2018-12-16T13:18:28.755Z,24.23
2018-12-16T13:20:57.382Z,23.57
2018-12-16T13:23:25.895Z,22.67
2018-12-16T13:26:02.708Z,25.82
2018-12-16T13:28:31.296Z,24.43
2018-12-16T13:31:00.048Z,22.58
2018-12-16T13:33:28.557Z,21.50
2018-12-16T13:35:57.044Z,23.73
2018-12-16T13:38:25.544Z,22.77
2018-12-16T13:40:54.160Z,27.35
2018-12-16T13:43:22.668Z,18.75
2018-12-16T13:45:51.277Z,25.15
2018-12-16T13:48:19.781Z,23.07
2018-12-16T13:50:48.268Z,23.25
2018-12-16T13:53:16.790Z,25.25
2018-12-16T13:55:45.418Z,20.70
2018-12-16T13:58:13.924Z,24.50
2018-12-16T14:00:42.410Z,22.48
2018-12-16T14:03:10.923Z,22.65
2018-12-16T14:05:46.481Z,20.02
2018-12-16T14:08:10.053Z,17.77
2018-12-16T14:10:38.552Z,19.48
2018-12-16T14:13:07.999Z,19.80
2018-12-16T14:15:36.512Z,20.43
2018-12-16T14:18:05.015Z,19.85
2018-12-16T14:20:33.520Z,25.68
2018-12-16T14:23:02.008Z,27.95
2018-12-16T14:25:30.590Z,17.95
2018-12-16T14:27:59.248Z,23.32
2018-12-16T14:30:27.756Z,21.10
2018-12-16T14:32:56.317Z,25.65
2018-12-16T14:35:25.225Z,27.70
2018-12-16T14:37:53.945Z,30.08
2018-12-16T14:40:22.472Z,33.70
2018-12-16T14:42:50.987Z,35.70
2018-12-16T14:45:20.261Z,28.92
2018-12-16T14:47:48.837Z,27.48
2018-12-16T14:50:17.355Z,36.93
2018-12-16T14:52:45.845Z,31.97
2018-12-16T14:55:14.368Z,21.95
2018-12-16T14:57:42.863Z,24.70
2018-12-16T15:00:12.066Z,25.70
2018-12-16T15:02:40.552Z,24.02
2018-12-16T15:05:09.663Z,25.35
2018-12-16T15:07:38.166Z,32.05
2018-12-16T15:10:09.521Z,28.85
2018-12-16T15:12:38.249Z,28.15
2018-12-16T15:15:07.914Z,35.48
2018-12-16T15:17:42.532Z,36.03
2018-12-16T15:20:08.212Z,34.35
2018-12-16T15:22:36.976Z,31.68
2018-12-16T15:25:07.048Z,31.93
2018-12-16T15:27:36.447Z,31.27
2018-12-16T15:30:07.189Z,37.20
2018-12-16T15:32:35.676Z,37.35
2018-12-16T15:35:04.927Z,37.25
2018-12-16T15:37:33.531Z,46.35
2018-12-16T15:40:02.047Z,37.63
2018-12-16T15:42:30.549Z,38.28
2018-12-16T15:44:59.057Z,28.15
2018-12-16T15:47:27.593Z,34.30
2018-12-16T15:49:56.121Z,30.17
2018-12-16T15:52:24.596Z,30.17
2018-12-16T15:54:53.226Z,30.08
2018-12-16T15:57:21.727Z,23.38
2018-12-16T15:59:50.213Z,25.88
2018-12-16T16:02:18.725Z,26.12
2018-12-16T16:04:47.236Z,22.15
2018-12-16T16:07:15.760Z,21.12
2018-12-16T16:09:44.240Z,25.32
2018-12-16T16:12:12.765Z,26.50
2018-12-16T16:14:41.280Z,23.30
2018-12-16T16:17:09.801Z,21.45
2018-12-16T16:19:38.317Z,24.50
2018-12-16T16:22:06.920Z,21.82
2018-12-16T16:24:35.390Z,24.77
2018-12-16T16:27:03.918Z,39.33
2018-12-16T16:29:32.429Z,28.00
2018-12-16T16:32:01.128Z,30.00
2018-12-16T16:34:29.620Z,28.30
2018-12-16T16:36:58.180Z,31.37
2018-12-16T16:39:26.694Z,29.77
2018-12-16T16:41:55.197Z,22.02
2018-12-16T16:44:23.685Z,20.88
2018-12-16T16:46:52.236Z,21.37
2018-12-16T16:49:20.853Z,24.55
2018-12-16T16:51:51.125Z,24.40
2018-12-16T16:54:19.614Z,22.13
2018-12-16T16:56:48.110Z,22.80
2018-12-16T16:59:16.761Z,25.10
2018-12-16T17:01:45.280Z,23.10
2018-12-16T17:04:13.773Z,24.57
2018-12-16T17:06:42.412Z,24.35
2018-12-16T17:09:10.905Z,21.87
2018-12-16T17:11:39.519Z,24.40
2018-12-16T17:14:08.386Z,20.10
2018-12-16T17:16:37.026Z,27.32
2018-12-16T17:19:06.102Z,31.97
2018-12-16T17:21:34.943Z,22.75
2018-12-16T17:24:03.446Z,22.65
2018-12-16T17:26:31.982Z,23.83
2018-12-16T17:29:00.467Z,27.98
2018-12-16T17:31:28.991Z,27.05
2018-12-16T17:33:57.472Z,23.05
2018-12-16T17:36:25.997Z,24.82
2018-12-16T17:38:54.490Z,27.48
2018-12-16T17:41:22.996Z,29.20
2018-12-16T17:43:51.603Z,37.30
2018-12-16T17:46:20.168Z,31.25
2018-12-16T17:48:48.638Z,35.58
2018-12-16T17:51:18.158Z,32.17
2018-12-16T17:53:46.676Z,41.10
2018-12-16T17:56:15.154Z,36.03
2018-12-16T17:58:43.800Z,29.23
2018-12-16T18:01:12.279Z,31.10
2018-12-16T18:03:40.783Z,27.02
2018-12-16T18:06:09.283Z,29.57
2018-12-16T18:08:37.799Z,29.25
2018-12-16T18:11:06.283Z,31.53
2018-12-16T18:13:34.907Z,27.60
2018-12-16T18:16:03.435Z,28.55
2018-12-16T18:18:31.940Z,25.92
2018-12-16T18:21:01.197Z,25.77
2018-12-16T18:23:29.944Z,24.52
2018-12-16T18:25:58.609Z,24.63
2018-12-16T18:28:27.110Z,24.92
2018-12-16T18:30:55.584Z,30.05
2018-12-16T18:33:24.415Z,31.50
2018-12-16T18:35:52.902Z,35.88
2018-12-16T18:38:21.419Z,36.98
2018-12-16T18:40:49.925Z,38.00
2018-12-16T18:43:18.953Z,26.52
2018-12-16T18:45:47.451Z,33.42
2018-12-16T18:48:15.965Z,24.30
2018-12-16T18:50:44.457Z,25.35
2018-12-16T18:53:13.265Z,27.45
2018-12-16T18:55:41.772Z,27.82
2018-12-16T18:58:10.288Z,24.02
2018-12-16T19:00:38.767Z,23.18
2018-12-16T19:03:07.311Z,33.80
2018-12-16T19:05:35.871Z,23.47
2018-12-16T19:08:04.535Z,21.42
2018-12-16T19:10:33.199Z,27.13
2018-12-16T19:13:01.724Z,34.78
2018-12-16T19:15:30.303Z,45.52
2018-12-16T19:17:58.804Z,28.50
2018-12-16T19:20:27.397Z,34.23
2018-12-16T19:22:55.943Z,31.40
2018-12-16T19:25:24.455Z,27.07
2018-12-16T19:27:52.968Z,32.10
2018-12-16T19:30:21.434Z,29.95
2018-12-16T19:32:50.818Z,29.47
2018-12-16T19:35:19.388Z,26.20
2018-12-16T19:37:49.121Z,34.55
2018-12-16T19:40:17.609Z,51.63
2018-12-16T19:42:46.119Z,37.90
2018-12-16T19:45:14.747Z,29.63
2018-12-16T19:47:49.442Z,31.85
2018-12-16T19:50:13.783Z,34.15
2018-12-16T19:52:42.299Z,20.00
2018-12-16T19:55:11.004Z,22.22
2018-12-16T19:57:39.523Z,22.07
2018-12-16T20:00:08.615Z,22.50
2018-12-16T20:02:37.124Z,18.95
2018-12-16T20:05:08.618Z,24.37
2018-12-16T20:07:37.233Z,28.85
2018-12-16T20:10:06.214Z,19.23
2018-12-16T20:12:34.720Z,24.27
2018-12-16T20:15:06.589Z,20.02
2018-12-16T20:17:35.369Z,16.17
2018-12-16T20:20:04.336Z,26.93
2018-12-16T20:22:32.853Z,20.70
2018-12-16T20:25:01.359Z,21.20
2018-12-16T20:27:29.856Z,19.90
2018-12-16T20:29:58.367Z,17.37
2018-12-16T20:32:26.971Z,14.07
2018-12-16T20:34:55.947Z,20.82
2018-12-16T20:37:24.438Z,16.03
2018-12-16T20:39:52.932Z,21.05
2018-12-16T20:42:21.428Z,15.43
2018-12-16T20:44:50.045Z,15.75
2018-12-16T20:47:18.687Z,14.20
2018-12-16T20:49:47.215Z,16.85
2018-12-16T20:52:15.703Z,14.70
2018-12-16T20:54:44.212Z,16.23
2018-12-16T20:57:18.700Z,17.23
2018-12-16T20:59:43.230Z,19.15
2018-12-16T21:02:11.697Z,16.87
2018-12-16T21:04:40.220Z,11.25
2018-12-16T21:07:08.712Z,12.58
2018-12-16T21:09:37.216Z,13.17
2018-12-16T21:12:09.897Z,14.25
2018-12-16T21:14:43.761Z,11.75
2018-12-16T21:17:17.573Z,12.93
2018-12-16T21:19:46.288Z,20.57
2018-12-16T21:22:14.915Z,16.90
2018-12-16T21:24:43.424Z,13.93
2018-12-16T21:27:11.944Z,14.20
2018-12-16T21:29:40.772Z,14.30
2018-12-16T21:32:09.268Z,13.32
2018-12-16T21:34:37.784Z,18.02
2018-12-16T21:37:06.310Z,14.25
2018-12-16T21:39:34.811Z,12.25
2018-12-16T21:42:03.300Z,16.73
2018-12-16T21:44:31.798Z,11.38
2018-12-16T21:47:00.319Z,13.70
2018-12-16T21:49:28.836Z,10.98
2018-12-16T21:51:57.318Z,13.55
2018-12-16T21:54:25.882Z,12.40
2018-12-16T21:56:54.388Z,13.48
2018-12-16T21:59:23.255Z,14.23
2018-12-16T22:01:51.737Z,15.05
2018-12-16T22:04:20.282Z,15.00
2018-12-16T22:06:48.760Z,13.60
2018-12-16T22:09:17.397Z,17.37
2018-12-16T22:11:45.895Z,14.13
2018-12-16T22:14:14.447Z,20.52
2018-12-16T22:16:42.988Z,13.93
2018-12-16T22:19:11.515Z,16.15
2018-12-16T22:21:40.101Z,17.62
2018-12-16T22:24:08.604Z,16.97
2018-12-16T22:26:37.115Z,14.45
2018-12-16T22:29:05.654Z,16.12
2018-12-16T22:31:34.330Z,16.87
2018-12-16T22:34:03.004Z,17.05
2018-12-16T22:36:31.495Z,16.77
2018-12-16T22:39:00.001Z,15.45
2018-12-16T22:41:28.476Z,16.82
2018-12-16T22:43:57.147Z,23.35
2018-12-16T22:46:26.113Z,18.52
2018-12-16T22:48:54.614Z,18.27
2018-12-16T22:51:23.088Z,15.40
2018-12-16T22:53:52.128Z,17.80
2018-12-16T22:56:20.607Z,26.05
2018-12-16T22:58:54.304Z,16.17
2018-12-16T23:01:19.795Z,18.00
2018-12-16T23:03:48.293Z,18.10
2018-12-16T23:06:17.194Z,21.20
2018-12-16T23:08:45.702Z,17.62
2018-12-16T23:11:14.197Z,21.80
2018-12-16T23:13:42.695Z,24.00
2018-12-16T23:16:11.204Z,21.07
2018-12-16T23:18:40.686Z,18.00
2018-12-16T23:21:09.308Z,17.42
2018-12-16T23:23:37.797Z,20.55
2018-12-16T23:26:06.304Z,19.30
2018-12-16T23:28:34.927Z,18.40
2018-12-16T23:31:03.803Z,20.12
2018-12-16T23:33:32.409Z,17.00
2018-12-16T23:36:00.936Z,20.45
2018-12-16T23:38:29.424Z,20.08
2018-12-16T23:40:57.920Z,18.57
2018-12-16T23:43:26.662Z,21.30
2018-12-16T23:45:55.320Z,26.45
2018-12-16T23:48:23.798Z,24.40
2018-12-16T23:50:52.324Z,22.05
2018-12-16T23:53:20.806Z,17.92
2018-12-16T23:55:49.360Z,21.55
2018-12-16T23:58:17.856Z,16.77
